createdAt,value
2018-06-08T00:00:06.000Z,18.50
2018-06-08T00:02:34.516Z,18.50
2018-06-08T00:05:02.765Z,18.50
2018-06-08T00:07:31.015Z,18.50
2018-06-08T00:09:59.180Z,18.40
2018-06-08T00:12:27.473Z,18.50
2018-06-08T00:14:55.949Z,18.40
2018-06-08T00:17:24.216Z,18.40
2018-06-08T00:19:52.600Z,18.40
2018-06-08T00:22:20.896Z,18.30
2018-06-08T00:24:49.338Z,18.30
2018-06-08T00:27:17.576Z,18.30
2018-06-08T00:29:45.812Z,18.30
2018-06-08T00:32:14.025Z,18.20
2018-06-08T00:34:42.369Z,18.20
2018-06-08T00:37:11.158Z,18.20
2018-06-08T00:39:39.418Z,18.20
2018-06-08T00:42:07.628Z,18.20
2018-06-08T00:44:35.812Z,18.10
2018-06-08T00:47:04.037Z,18.10
2018-06-08T00:49:32.646Z,18.10
2018-06-08T00:52:00.853Z,18.10
2018-06-08T00:54:29.157Z,18.00
2018-06-08T00:57:04.106Z,18.00
2018-06-08T00:59:32.378Z,17.90
2018-06-08T01:02:00.837Z,17.90
2018-06-08T01:04:29.059Z,17.90
2018-06-08T01:06:57.294Z,17.80
2018-06-08T01:09:25.537Z,17.80
2018-06-08T01:11:53.893Z,17.70
2018-06-08T01:14:30.235Z,17.70
2018-06-08T01:16:59.324Z,17.60
2018-06-08T01:19:28.016Z,17.60
2018-06-08T01:21:57.288Z,17.60
2018-06-08T01:24:25.518Z,17.60
2018-06-08T01:26:53.659Z,17.60
2018-06-08T01:29:22.080Z,17.50
2018-06-08T01:31:50.269Z,17.50
2018-06-08T01:34:18.487Z,17.40
2018-06-08T01:36:46.705Z,17.40
2018-06-08T01:39:14.988Z,17.30
2018-06-08T01:41:43.318Z,17.20
2018-06-08T01:44:11.523Z,17.20
2018-06-08T01:46:39.668Z,17.10
2018-06-08T01:49:08.035Z,17.10
2018-06-08T01:51:36.263Z,17.00
2018-06-08T01:54:04.509Z,16.90
2018-06-08T01:56:32.724Z,16.90
2018-06-08T01:59:00.897Z,16.80
2018-06-08T02:01:29.090Z,16.90
2018-06-08T02:03:57.296Z,16.80
2018-06-08T02:06:25.662Z,16.80
2018-06-08T02:08:53.808Z,16.80
2018-06-08T02:11:22.153Z,16.80
2018-06-08T02:13:50.369Z,16.90
2018-06-08T02:16:18.576Z,16.80
2018-06-08T02:18:46.785Z,16.80
2018-06-08T02:21:15.195Z,16.70
2018-06-08T02:23:43.376Z,16.70
2018-06-08T02:26:11.529Z,16.70
2018-06-08T02:28:39.661Z,16.70
2018-06-08T02:31:07.925Z,16.60
2018-06-08T02:33:36.136Z,16.60
2018-06-08T02:36:04.480Z,16.60
2018-06-08T02:38:32.701Z,16.60
2018-06-08T02:41:00.857Z,16.50
2018-06-08T02:43:29.136Z,16.50
2018-06-08T02:45:57.271Z,16.50
2018-06-08T02:48:25.527Z,16.50
2018-06-08T02:50:53.656Z,16.60
2018-06-08T02:53:21.876Z,16.50
2018-06-08T02:55:50.072Z,16.50
2018-06-08T02:58:18.257Z,16.40
2018-06-08T03:00:46.589Z,16.40
2018-06-08T03:03:14.787Z,16.40
2018-06-08T03:05:42.978Z,16.30
2018-06-08T03:08:11.249Z,16.30
2018-06-08T03:10:39.436Z,16.20
2018-06-08T03:13:07.890Z,16.10
2018-06-08T03:15:36.135Z,16.00
2018-06-08T03:18:04.448Z,16.00
2018-06-08T03:20:32.660Z,16.10
2018-06-08T03:23:00.900Z,16.10
2018-06-08T03:25:29.432Z,16.10
2018-06-08T03:27:57.713Z,16.10
2018-06-08T03:30:25.978Z,16.10
2018-06-08T03:32:54.200Z,16.10
2018-06-08T03:35:22.938Z,16.20
2018-06-08T03:37:51.445Z,16.10
2018-06-08T03:40:19.588Z,16.10
2018-06-08T03:42:47.902Z,16.10
2018-06-08T03:45:16.170Z,16.20
2018-06-08T03:47:44.429Z,16.20
2018-06-08T03:50:13.039Z,16.20
2018-06-08T03:52:41.192Z,16.20
2018-06-08T03:55:09.369Z,16.20
2018-06-08T03:57:37.605Z,16.30
2018-06-08T04:00:06.106Z,16.40
2018-06-08T04:02:34.301Z,16.40
2018-06-08T04:05:02.532Z,16.40
2018-06-08T04:07:30.681Z,16.40
2018-06-08T04:09:58.951Z,16.50
2018-06-08T04:12:27.252Z,16.40
2018-06-08T04:14:55.577Z,16.40
2018-06-08T04:17:23.786Z,16.40
2018-06-08T04:19:51.997Z,16.50
2018-06-08T04:22:20.383Z,16.50
2018-06-08T04:24:48.512Z,16.50
2018-06-08T04:27:16.760Z,16.60
2018-06-08T04:29:44.966Z,16.60
2018-06-08T04:32:13.240Z,16.80
2018-06-08T04:34:41.615Z,16.90
2018-06-08T04:37:09.844Z,17.00
2018-06-08T04:39:38.134Z,17.00
2018-06-08T04:42:06.394Z,17.10
2018-06-08T04:44:34.688Z,17.10
2018-06-08T04:47:03.525Z,17.20
2018-06-08T04:49:31.796Z,17.30
2018-06-08T04:52:00.114Z,17.40
2018-06-08T04:54:28.296Z,17.50
2018-06-08T04:56:56.556Z,17.50
2018-06-08T04:59:24.945Z,17.50
2018-06-08T05:01:53.224Z,17.50
2018-06-08T05:04:22.185Z,17.50
2018-06-08T05:06:50.556Z,17.60
2018-06-08T05:09:18.770Z,17.70
2018-06-08T05:11:51.749Z,17.80
2018-06-08T05:23:40.240Z,18.30
2018-06-08T05:26:08.538Z,18.60
2018-06-08T05:28:40.356Z,18.80
2018-06-08T05:31:08.649Z,19.00
2018-06-08T05:33:44.909Z,19.20
2018-06-08T05:36:13.292Z,19.30
2018-06-08T05:38:41.887Z,19.30
2018-06-08T05:41:10.123Z,19.30
2018-06-08T05:43:38.657Z,19.30
2018-06-08T05:46:06.981Z,19.30
2018-06-08T05:48:35.416Z,19.40
2018-06-08T05:51:04.648Z,19.40
2018-06-08T05:53:32.957Z,19.50
2018-06-08T05:56:02.044Z,19.50
2018-06-08T05:58:30.497Z,19.60
2018-06-08T06:00:58.826Z,19.70
2018-06-08T06:03:27.204Z,19.70
2018-06-08T06:05:55.542Z,19.80
2018-06-08T06:08:23.984Z,19.90
2018-06-08T06:10:52.297Z,20.00
2018-06-08T06:13:20.666Z,20.10
2018-06-08T06:15:48.908Z,20.10
2018-06-08T06:18:17.112Z,20.20
2018-06-08T06:20:45.616Z,20.30
2018-06-08T06:23:14.184Z,20.30
2018-06-08T06:25:42.503Z,20.50
2018-06-08T06:28:10.994Z,20.50
2018-06-08T06:30:39.261Z,20.60
2018-06-08T06:33:07.751Z,20.70
2018-06-08T06:35:36.224Z,20.70
2018-06-08T06:38:04.596Z,20.90
2018-06-08T06:40:35.590Z,20.90
2018-06-08T06:43:09.321Z,21.10
2018-06-08T06:45:38.062Z,21.20
2018-06-08T06:48:09.095Z,21.30
2018-06-08T06:50:37.675Z,21.30
2018-06-08T06:53:06.110Z,21.40
2018-06-08T06:55:34.603Z,21.50
2018-06-08T06:58:03.303Z,21.60
2018-06-08T07:00:32.825Z,21.70
2018-06-08T07:03:02.220Z,21.80
2018-06-08T07:05:31.276Z,21.90
2018-06-08T07:07:59.745Z,21.90
2018-06-08T07:10:28.107Z,22.00
2018-06-08T07:12:56.399Z,22.00
2018-06-08T07:15:24.918Z,22.10
2018-06-08T07:17:53.543Z,22.20
2018-06-08T07:20:22.061Z,22.20
2018-06-08T07:22:50.638Z,22.30
2018-06-08T07:25:19.256Z,22.30
2018-06-08T07:27:48.097Z,22.30
2018-06-08T07:30:16.845Z,22.50
2018-06-08T07:32:46.768Z,22.60
2018-06-08T07:35:15.209Z,22.70
2018-06-08T07:37:43.445Z,22.90
2018-06-08T07:40:11.771Z,23.00
2018-06-08T07:42:43.835Z,23.00
2018-06-08T07:45:12.211Z,23.10
2018-06-08T07:47:40.597Z,23.10
2018-06-08T07:50:10.374Z,23.10
2018-06-08T07:52:38.524Z,23.30
2018-06-08T07:55:06.812Z,23.30
2018-06-08T07:57:34.998Z,23.50
2018-06-08T08:00:03.367Z,23.50
2018-06-08T08:02:31.625Z,23.60
2018-06-08T08:04:59.833Z,23.70
2018-06-08T08:07:28.068Z,23.60
2018-06-08T08:09:56.414Z,23.70
2018-06-08T08:12:24.668Z,23.80
2018-06-08T08:14:52.878Z,24.00
2018-06-08T08:17:21.055Z,24.00
2018-06-08T08:19:49.195Z,24.10
2018-06-08T08:22:17.360Z,24.20
2018-06-08T08:24:45.649Z,24.20
2018-06-08T08:27:13.997Z,24.30
2018-06-08T08:29:42.188Z,24.40
2018-06-08T08:32:10.432Z,24.40
2018-06-08T08:34:38.726Z,24.60
2018-06-08T08:37:06.965Z,24.60
2018-06-08T08:39:35.157Z,24.70
2018-06-08T08:42:03.684Z,24.80
2018-06-08T08:44:33.314Z,24.90
2018-06-08T08:47:01.548Z,24.90
2018-06-08T08:49:29.763Z,25.00
2018-06-08T08:51:57.902Z,24.90
2018-06-08T08:54:26.556Z,25.00
2018-06-08T08:56:54.833Z,25.20
2018-06-08T08:59:22.994Z,25.20
2018-06-08T09:01:51.153Z,25.30
2018-06-08T09:04:19.317Z,25.30
2018-06-08T09:06:47.566Z,25.30
2018-06-08T09:09:15.753Z,25.40
2018-06-08T09:11:43.969Z,25.40
2018-06-08T09:14:12.099Z,25.40
2018-06-08T09:16:40.211Z,25.40
2018-06-08T09:19:08.490Z,25.50
2018-06-08T09:21:36.639Z,25.50
2018-06-08T09:24:04.844Z,25.50
2018-06-08T09:26:33.011Z,25.50
2018-06-08T09:29:01.177Z,25.50
2018-06-08T09:31:29.324Z,25.60
2018-06-08T09:34:04.212Z,25.70
2018-06-08T09:37:32.848Z,25.70
2018-06-08T09:40:05.691Z,25.80
2018-06-08T10:23:25.573Z,26.30
2018-06-08T10:25:53.961Z,26.50
2018-06-08T10:28:22.226Z,26.50
2018-06-08T10:30:51.099Z,26.60
2018-06-08T10:33:19.659Z,26.70
2018-06-08T10:37:50.187Z,26.80
2018-06-08T10:40:19.885Z,26.80
2018-06-08T10:42:49.106Z,26.90
2018-06-08T10:45:17.957Z,26.90
2018-06-08T10:47:56.802Z,27.00
2018-06-08T10:53:18.062Z,27.20
2018-06-08T10:55:52.385Z,27.20
2018-06-08T10:58:20.807Z,27.30
2018-06-08T11:00:51.894Z,27.40
2018-06-08T11:03:20.378Z,27.40
2018-06-08T11:05:48.715Z,27.30
2018-06-08T11:08:19.292Z,27.30
2018-06-08T11:10:51.790Z,27.30
2018-06-08T11:35:14.133Z,27.70
2018-06-08T11:37:47.401Z,27.90
2018-06-08T11:40:28.442Z,28.00
2018-06-08T11:45:45.349Z,28.10
2018-06-08T11:57:35.379Z,28.20
2018-06-08T12:00:08.517Z,28.40
2018-06-08T12:02:42.339Z,28.40
2018-06-08T12:05:18.070Z,28.40
2018-06-08T12:07:59.633Z,28.50
2018-06-08T12:10:46.693Z,28.60
2018-06-08T12:24:40.012Z,28.90
2018-06-08T12:30:13.511Z,28.90
2018-06-08T12:38:41.845Z,28.90
2018-06-08T12:41:31.142Z,28.90
2018-06-08T12:44:17.858Z,29.00
2018-06-08T12:47:09.426Z,29.10
2018-06-08T13:14:56.177Z,29.30
2018-06-08T14:00:33.477Z,30.00
2018-06-08T14:08:52.690Z,30.10
2018-06-08T14:43:20.380Z,30.10
2018-06-08T14:47:22.213Z,30.10
2018-06-08T14:50:09.823Z,30.10
2018-06-08T14:52:38.614Z,30.10
2018-06-08T14:55:10.114Z,30.10
2018-06-08T14:57:39.326Z,30.20
2018-06-08T15:00:16.706Z,30.30
2018-06-08T15:02:50.426Z,30.40
2018-06-08T15:05:22.577Z,30.40
2018-06-08T15:07:52.111Z,30.50
2018-06-08T15:10:25.290Z,30.50
2018-06-08T15:39:17.894Z,30.50
2018-06-08T15:41:58.980Z,30.10
2018-06-08T15:44:27.697Z,29.90
2018-06-08T15:46:56.108Z,29.80
2018-06-08T15:49:27.386Z,29.80
2018-06-08T15:51:57.721Z,29.80
2018-06-08T15:56:21.994Z,29.70
2018-06-08T15:59:09.644Z,29.70
2018-06-08T16:01:38.013Z,29.60
2018-06-08T16:04:08.315Z,29.50
2018-06-08T16:06:39.253Z,29.50
2018-06-08T16:09:08.137Z,29.50
2018-06-08T16:11:36.607Z,29.50
2018-06-08T16:14:05.108Z,29.50
2018-06-08T16:16:33.545Z,29.50
2018-06-08T16:19:02.026Z,29.50
2018-06-08T16:21:30.378Z,29.50
2018-06-08T16:23:58.685Z,29.50
2018-06-08T16:26:26.997Z,29.50
2018-06-08T16:28:57.445Z,29.50
2018-06-08T16:31:28.603Z,29.40
2018-06-08T16:34:16.137Z,29.40
2018-06-08T16:37:02.614Z,29.30
2018-06-08T16:39:34.764Z,29.20
2018-06-08T16:42:47.144Z,29.10
2018-06-08T16:45:22.157Z,29.00
2018-06-08T16:48:23.164Z,28.90
2018-06-08T17:00:09.871Z,28.80
2018-06-08T17:02:38.284Z,28.60
2018-06-08T17:05:34.518Z,28.50
2018-06-08T17:08:12.961Z,28.50
2018-06-08T17:10:57.683Z,28.40
2018-06-08T17:22:08.489Z,28.30
2018-06-08T17:24:38.513Z,28.10
2018-06-08T17:27:09.439Z,28.00
2018-06-08T17:29:39.968Z,28.10
2018-06-08T17:32:18.439Z,28.00
2018-06-08T17:35:08.780Z,27.90
2018-06-08T17:37:41.147Z,27.90
2018-06-08T17:40:17.031Z,27.80
2018-06-08T17:52:39.271Z,27.80
2018-06-08T17:55:16.814Z,27.70
2018-06-08T17:57:51.312Z,27.20
2018-06-08T18:00:31.165Z,27.20
2018-06-08T18:02:59.636Z,27.10
2018-06-08T18:05:28.096Z,27.10
2018-06-08T18:07:56.696Z,27.20
2018-06-08T18:10:25.188Z,27.10
2018-06-08T18:12:54.338Z,27.00
2018-06-08T18:15:40.240Z,27.00
2018-06-08T18:18:18.017Z,27.00
2018-06-08T18:20:50.499Z,26.90
2018-06-08T18:29:43.678Z,26.60
2018-06-08T18:32:33.561Z,26.60
2018-06-08T18:35:18.503Z,26.50
2018-06-08T18:49:29.621Z,26.10
2018-06-08T19:00:31.172Z,26.00
2018-06-08T19:20:50.572Z,25.50
2018-06-08T19:23:27.160Z,25.40
2018-06-08T19:25:55.869Z,25.50
2018-06-08T19:28:36.247Z,25.40
2018-06-08T19:31:05.549Z,25.30
2018-06-08T19:33:41.391Z,25.30
2018-06-08T19:36:12.994Z,25.20
2018-06-08T19:38:49.438Z,25.10
2018-06-08T19:41:25.297Z,25.10
2018-06-08T19:43:53.583Z,25.10
2018-06-08T19:46:25.584Z,25.10
2018-06-08T19:48:56.435Z,25.00
2018-06-08T19:51:26.662Z,24.90
2018-06-08T19:54:12.134Z,24.80
2018-06-08T19:56:40.451Z,24.80
2018-06-08T19:59:08.606Z,24.70
2018-06-08T20:01:36.797Z,24.60
2018-06-08T20:04:06.019Z,24.50
2018-06-08T20:06:34.547Z,24.50
2018-06-08T20:09:03.617Z,24.50
2018-06-08T20:11:31.974Z,24.50
2018-06-08T20:14:08.354Z,24.40
2018-06-08T20:16:36.694Z,24.40
2018-06-08T20:19:05.770Z,24.40
2018-06-08T20:21:34.153Z,24.40
2018-06-08T20:27:56.839Z,24.40
2018-06-08T20:36:31.016Z,24.20
2018-06-08T20:38:59.659Z,24.20
2018-06-08T20:44:06.185Z,24.10
2018-06-08T20:46:34.430Z,24.00
2018-06-08T20:49:02.715Z,23.90
2018-06-08T20:51:31.023Z,23.90
2018-06-08T20:53:59.370Z,23.80
2018-06-08T20:56:27.550Z,23.70
2018-06-08T20:58:56.810Z,23.70
2018-06-08T21:01:25.017Z,23.60
2018-06-08T21:03:53.273Z,23.60
2018-06-08T21:06:21.487Z,23.50
2018-06-08T21:08:49.720Z,23.50
2018-06-08T21:11:17.869Z,23.50
2018-06-08T21:13:46.087Z,23.40
2018-06-08T21:16:14.325Z,23.30
2018-06-08T21:18:42.532Z,23.30
2018-06-08T21:21:10.804Z,23.20
2018-06-08T21:26:07.146Z,23.10
2018-06-08T21:28:35.485Z,23.00
2018-06-08T21:31:03.748Z,23.00
2018-06-08T21:33:32.023Z,23.00
2018-06-08T21:36:00.512Z,22.90
2018-06-08T21:38:28.986Z,22.90
2018-06-08T21:40:57.347Z,22.80
2018-06-08T21:43:25.578Z,22.80
2018-06-08T21:45:54.000Z,22.80
2018-06-08T21:48:22.534Z,22.80
2018-06-08T21:50:50.852Z,22.80
2018-06-08T21:53:19.146Z,22.80
2018-06-08T21:55:47.416Z,22.80
2018-06-08T21:58:16.089Z,22.80
2018-06-08T22:00:44.338Z,22.80
2018-06-08T22:05:40.755Z,22.70
2018-06-08T22:08:09.011Z,22.60
2018-06-08T22:10:37.326Z,22.60
2018-06-08T22:13:05.849Z,22.60
2018-06-08T22:15:34.378Z,22.50
2018-06-08T22:18:07.590Z,22.50
2018-06-08T22:20:35.884Z,22.40
2018-06-08T22:23:04.242Z,22.40
2018-06-08T22:25:32.440Z,22.30
2018-06-08T22:28:00.695Z,22.20
2018-06-08T22:30:29.282Z,22.10
2018-06-08T22:32:57.554Z,22.10
2018-06-08T22:35:25.737Z,22.00
2018-06-08T22:37:53.923Z,21.90
2018-06-08T22:40:22.139Z,21.80
2018-06-08T22:42:50.349Z,21.80
2018-06-08T22:45:18.582Z,21.70
2018-06-08T22:47:46.800Z,21.70
2018-06-08T22:50:14.998Z,21.60
2018-06-08T22:52:43.229Z,21.60
2018-06-08T22:55:11.428Z,21.50
2018-06-08T22:57:39.602Z,21.50
2018-06-08T23:02:36.583Z,21.40
2018-06-08T23:05:04.753Z,21.40
2018-06-08T23:07:32.932Z,21.30
2018-06-08T23:10:01.146Z,21.30
2018-06-08T23:12:29.362Z,21.20
2018-06-08T23:14:57.520Z,21.20
2018-06-08T23:17:25.778Z,21.20
2018-06-08T23:19:53.976Z,21.10
2018-06-08T23:22:22.201Z,21.10
2018-06-08T23:24:50.440Z,21.00
2018-06-08T23:27:18.599Z,21.00
2018-06-08T23:29:46.768Z,21.00
2018-06-08T23:32:14.980Z,20.90
2018-06-08T23:34:43.227Z,20.90
2018-06-08T23:37:11.400Z,20.80
2018-06-08T23:39:39.591Z,20.80
2018-06-08T23:42:07.858Z,20.80
2018-06-08T23:44:36.029Z,20.70
2018-06-08T23:47:04.211Z,20.70
2018-06-08T23:49:32.373Z,20.60
2018-06-08T23:52:00.652Z,20.60
2018-06-08T23:54:28.835Z,20.60
2018-06-08T23:56:57.107Z,20.60
2018-06-08T23:59:25.274Z,20.50
